createdAt,value
2023-02-12T00:02:12.873Z,5.17
2023-02-12T00:04:39.303Z,5.13
2023-02-12T00:07:05.875Z,5.04
2023-02-12T00:09:32.418Z,5.01
2023-02-12T00:11:58.876Z,5.10
2023-02-12T00:14:25.419Z,5.07
2023-02-12T00:16:51.967Z,5.10
2023-02-12T00:19:18.426Z,5.18
2023-02-12T00:21:44.904Z,5.24
2023-02-12T00:24:13.860Z,5.45
2023-02-12T00:26:40.346Z,5.44
2023-02-12T00:29:06.817Z,5.45
2023-02-12T00:31:33.451Z,5.64
2023-02-12T00:34:02.721Z,5.63
2023-02-12T00:36:31.809Z,5.52
2023-02-12T00:38:59.010Z,5.45
2023-02-12T00:41:26.235Z,5.69
2023-02-12T00:43:52.724Z,5.56
2023-02-12T00:46:19.429Z,5.78
2023-02-12T00:48:46.022Z,5.75
2023-02-12T00:51:12.906Z,5.70
2023-02-12T00:53:39.662Z,5.61
2023-02-12T00:56:06.419Z,5.56
2023-02-12T00:58:33.248Z,5.51
2023-02-12T01:00:59.806Z,5.47
2023-02-12T01:03:26.436Z,5.33
2023-02-12T01:05:53.703Z,5.38
2023-02-12T01:08:20.540Z,5.45
2023-02-12T01:10:56.716Z,5.26
2023-02-12T01:13:25.532Z,5.28
2023-02-12T01:16:14.117Z,5.29
2023-02-12T01:18:40.997Z,5.30
2023-02-12T01:21:19.577Z,5.25
2023-02-12T01:23:47.433Z,5.08
2023-02-12T01:26:15.007Z,5.08
2023-02-12T01:28:43.244Z,5.07
2023-02-12T01:31:11.711Z,5.07
2023-02-12T01:33:38.407Z,5.05
2023-02-12T01:36:05.187Z,4.99
2023-02-12T01:38:31.637Z,4.89
2023-02-12T01:41:21.528Z,4.99
2023-02-12T01:44:17.366Z,5.06
2023-02-12T01:46:48.211Z,5.03
2023-02-12T01:49:21.420Z,5.11
2023-02-12T01:51:52.304Z,5.04
2023-02-12T01:54:22.687Z,5.06
2023-02-12T01:56:49.406Z,5.01
2023-02-12T01:59:16.982Z,4.98
2023-02-12T02:01:43.452Z,5.00
2023-02-12T02:04:19.667Z,4.90
2023-02-12T02:06:56.300Z,4.89
2023-02-12T02:09:25.602Z,4.83
2023-02-12T02:12:10.701Z,4.89
2023-02-12T02:14:39.752Z,4.80
2023-02-12T02:17:19.704Z,4.81
2023-02-12T02:20:05.011Z,4.79
2023-02-12T02:22:42.414Z,4.80
2023-02-12T02:25:24.415Z,4.84
2023-02-12T02:28:09.875Z,4.77
2023-02-12T02:30:45.363Z,4.60
2023-02-12T02:33:44.013Z,4.66
2023-02-12T02:36:15.396Z,4.76
2023-02-12T02:38:45.947Z,4.89
2023-02-12T02:41:27.650Z,4.80
2023-02-12T02:43:58.069Z,4.77
2023-02-12T02:46:52.291Z,4.72
2023-02-12T02:49:21.698Z,4.67
2023-02-12T02:52:02.079Z,4.71
2023-02-12T02:54:36.052Z,4.79
2023-02-12T02:57:11.953Z,4.78
2023-02-12T02:59:46.485Z,4.72
2023-02-12T03:02:36.256Z,4.80
2023-02-12T03:05:15.939Z,4.71
2023-02-12T03:07:52.354Z,4.77
2023-02-12T03:10:24.267Z,4.73
2023-02-12T03:13:00.016Z,4.62
2023-02-12T03:15:36.574Z,4.64
2023-02-12T03:18:09.882Z,4.60
2023-02-12T03:20:43.501Z,4.67
2023-02-12T03:23:11.248Z,4.70
2023-02-12T03:25:58.771Z,4.89
2023-02-12T03:28:38.503Z,4.71
2023-02-12T03:31:22.358Z,4.71
2023-02-12T03:34:11.497Z,4.65
2023-02-12T03:36:41.061Z,4.62
2023-02-12T03:39:30.317Z,4.67
2023-02-12T03:42:13.027Z,4.76
2023-02-12T03:44:52.878Z,4.64
2023-02-12T03:47:49.671Z,4.71
2023-02-12T03:50:41.050Z,4.61
2023-02-12T03:53:07.810Z,4.56
2023-02-12T03:55:39.496Z,4.58
2023-02-12T03:58:09.450Z,4.57
2023-02-12T04:00:38.555Z,4.56
2023-02-12T04:03:06.473Z,4.55
2023-02-12T04:05:35.513Z,4.55
2023-02-12T04:08:09.562Z,4.53
2023-02-12T04:11:07.636Z,4.57
2023-02-12T04:13:50.740Z,4.53
2023-02-12T04:16:29.840Z,4.57
2023-02-12T04:18:56.948Z,4.59
2023-02-12T04:21:44.786Z,4.69
2023-02-12T04:24:46.522Z,4.63
2023-02-12T04:27:24.631Z,4.40
2023-02-12T04:29:53.755Z,4.42
2023-02-12T04:32:45.228Z,4.49
2023-02-12T04:35:19.099Z,4.46
2023-02-12T04:37:50.946Z,4.41
2023-02-12T04:40:24.177Z,4.41
2023-02-12T04:42:53.289Z,4.31
2023-02-12T04:45:27.121Z,4.43
2023-02-12T04:47:53.809Z,4.47
2023-02-12T04:50:20.600Z,4.46
2023-02-12T04:52:47.289Z,4.43
2023-02-12T04:55:15.151Z,4.43
2023-02-12T04:57:41.743Z,4.59
2023-02-12T05:00:13.601Z,4.62
2023-02-12T05:02:40.485Z,4.50
2023-02-12T05:05:07.338Z,4.52
2023-02-12T05:07:33.935Z,4.44
2023-02-12T05:10:03.595Z,4.43
2023-02-12T05:12:30.157Z,4.45
2023-02-12T05:14:57.584Z,4.43
2023-02-12T05:17:25.059Z,4.39
2023-02-12T05:19:52.407Z,4.30
2023-02-12T05:22:18.971Z,4.39
2023-02-12T05:24:45.635Z,4.40
2023-02-12T05:27:12.532Z,4.39
2023-02-12T05:29:39.161Z,4.28
2023-02-12T05:32:07.014Z,4.29
2023-02-12T05:34:34.368Z,4.25
2023-02-12T05:37:01.370Z,4.28
2023-02-12T05:39:28.192Z,4.33
2023-02-12T05:41:54.769Z,4.37
2023-02-12T05:44:21.323Z,4.32
2023-02-12T05:46:47.947Z,4.26
2023-02-12T05:49:14.527Z,4.37
2023-02-12T05:51:41.149Z,4.31
2023-02-12T05:54:10.405Z,4.26
2023-02-12T05:56:42.422Z,4.23
2023-02-12T05:59:15.496Z,4.22
2023-02-12T06:01:46.356Z,4.24
2023-02-12T06:04:23.735Z,4.14
2023-02-12T06:06:55.748Z,4.18
2023-02-12T06:09:23.361Z,4.20
2023-02-12T06:11:50.094Z,4.24
2023-02-12T06:14:19.884Z,4.24
2023-02-12T06:16:51.399Z,4.19
2023-02-12T06:19:19.831Z,4.19
2023-02-12T06:21:46.769Z,4.20
2023-02-12T06:24:15.061Z,4.20
2023-02-12T06:26:41.812Z,4.16
2023-02-12T06:29:11.440Z,4.25
2023-02-12T06:31:38.479Z,4.23
2023-02-12T06:34:08.161Z,4.14
2023-02-12T06:36:37.414Z,4.17
2023-02-12T06:39:04.422Z,4.27
2023-02-12T06:41:31.077Z,4.19
2023-02-12T06:43:57.677Z,4.13
2023-02-12T06:46:24.374Z,4.19
2023-02-12T06:48:55.764Z,4.17
2023-02-12T06:51:23.602Z,4.18
2023-02-12T06:53:51.359Z,4.20
2023-02-12T06:56:19.226Z,4.22
2023-02-12T06:58:47.774Z,4.31
2023-02-12T07:01:18.150Z,4.23
2023-02-12T07:03:50.945Z,4.32
2023-02-12T07:06:18.280Z,4.26
2023-02-12T07:08:45.102Z,4.41
2023-02-12T07:11:12.107Z,4.41
2023-02-12T07:13:41.254Z,4.40
2023-02-12T07:16:10.752Z,4.36
2023-02-12T07:18:38.678Z,4.32
2023-02-12T07:21:07.158Z,4.29
2023-02-12T07:23:34.780Z,4.39
2023-02-12T07:26:03.524Z,4.31
2023-02-12T07:28:33.666Z,4.31
2023-02-12T07:31:07.788Z,4.45
2023-02-12T07:33:34.786Z,4.38
2023-02-12T07:36:02.224Z,4.29
2023-02-12T07:38:29.414Z,4.27
2023-02-12T07:40:58.853Z,4.45
2023-02-12T07:43:25.441Z,4.36
2023-02-12T07:45:52.063Z,4.40
2023-02-12T07:48:18.629Z,4.56
2023-02-12T07:50:47.678Z,4.35
2023-02-12T07:53:14.217Z,4.40
2023-02-12T07:55:43.236Z,4.38
2023-02-12T07:58:09.835Z,4.43
2023-02-12T08:00:36.444Z,4.51
2023-02-12T08:03:03.005Z,4.55
2023-02-12T08:05:29.751Z,4.57
2023-02-12T08:07:56.297Z,4.51
2023-02-12T08:10:23.686Z,4.67
2023-02-12T08:12:50.298Z,4.77
2023-02-12T08:15:17.084Z,4.82
2023-02-12T08:17:43.641Z,4.74
2023-02-12T08:20:10.527Z,4.75
2023-02-12T08:22:37.076Z,4.82
2023-02-12T08:25:03.653Z,5.08
2023-02-12T08:27:30.287Z,5.18
2023-02-12T08:29:56.871Z,5.22
2023-02-12T08:32:23.438Z,5.26
2023-02-12T08:34:50.024Z,5.28
2023-02-12T08:37:16.581Z,5.38
2023-02-12T08:39:43.269Z,5.29
2023-02-12T08:42:09.843Z,5.33
2023-02-12T08:44:37.136Z,5.36
2023-02-12T08:47:04.023Z,5.21
2023-02-12T08:49:32.769Z,5.25
2023-02-12T08:52:01.874Z,5.11
2023-02-12T08:54:30.586Z,5.16
2023-02-12T08:57:01.262Z,5.34
2023-02-12T08:59:28.287Z,5.41
2023-02-12T09:01:55.552Z,5.34
2023-02-12T09:04:27.303Z,5.61
2023-02-12T09:06:54.477Z,5.55
2023-02-12T09:09:21.248Z,5.59
2023-02-12T09:11:48.290Z,5.72
2023-02-12T09:14:18.742Z,5.62
2023-02-12T09:16:46.437Z,5.49
2023-02-12T09:19:14.522Z,5.56
2023-02-12T09:21:43.669Z,5.70
2023-02-12T09:24:10.764Z,5.58
2023-02-12T09:26:39.387Z,5.76
2023-02-12T09:29:06.396Z,5.84
2023-02-12T09:31:33.789Z,5.87
2023-02-12T09:34:06.453Z,5.99
2023-02-12T09:36:33.691Z,6.11
2023-02-12T09:39:00.532Z,6.04
2023-02-12T09:41:39.413Z,6.04
2023-02-12T09:44:42.343Z,5.96
2023-02-12T09:47:19.875Z,6.13
2023-02-12T09:49:54.775Z,6.10
2023-02-12T09:52:26.712Z,5.98
2023-02-12T09:54:54.104Z,6.17
2023-02-12T09:57:33.565Z,6.25
2023-02-12T10:00:06.784Z,6.31
2023-02-12T10:02:36.875Z,6.30
2023-02-12T10:05:04.718Z,6.48
2023-02-12T10:07:43.516Z,6.64
2023-02-12T10:10:17.831Z,6.39
2023-02-12T10:12:56.727Z,6.61
2023-02-12T10:15:34.473Z,6.77
2023-02-12T10:18:30.484Z,6.92
2023-02-12T10:21:11.835Z,6.69
2023-02-12T10:24:01.764Z,6.85
2023-02-12T10:26:55.710Z,7.07
2023-02-12T10:29:25.563Z,7.05
2023-02-12T10:32:00.722Z,6.95
2023-02-12T10:34:34.045Z,7.10
2023-02-12T10:37:25.819Z,7.04
2023-02-12T10:39:58.912Z,7.16
2023-02-12T10:42:47.585Z,7.05
2023-02-12T10:45:16.952Z,7.13
2023-02-12T10:47:46.286Z,7.12
2023-02-12T10:50:52.705Z,7.13
2023-02-12T10:53:29.053Z,7.04
2023-02-12T10:56:14.205Z,7.12
2023-02-12T10:58:50.756Z,6.99
2023-02-12T11:01:22.272Z,7.05
2023-02-12T11:03:49.163Z,7.12
2023-02-12T11:06:19.868Z,7.06
2023-02-12T11:08:48.107Z,7.01
2023-02-12T11:11:23.066Z,7.12
2023-02-12T11:14:04.924Z,7.24
2023-02-12T11:16:37.828Z,7.16
2023-02-12T11:19:07.331Z,7.07
2023-02-12T11:21:37.268Z,7.15
2023-02-12T11:24:30.734Z,7.15
2023-02-12T11:27:15.573Z,7.21
2023-02-12T11:29:43.622Z,7.19
2023-02-12T11:32:17.933Z,7.27
2023-02-12T11:34:44.558Z,7.25
2023-02-12T11:37:20.303Z,7.29
2023-02-12T11:39:49.421Z,7.20
2023-02-12T11:42:17.716Z,7.08
2023-02-12T11:44:57.018Z,6.93
2023-02-12T11:47:35.493Z,6.91
2023-02-12T11:50:08.170Z,7.11
2023-02-12T11:52:40.411Z,7.02
2023-02-12T11:55:27.949Z,7.15
2023-02-12T11:58:12.787Z,7.29
2023-02-12T12:00:50.381Z,7.40
2023-02-12T12:03:20.934Z,7.32
2023-02-12T12:05:52.604Z,7.37
2023-02-12T12:08:26.020Z,7.61
2023-02-12T12:11:19.077Z,7.71
2023-02-12T12:13:57.348Z,7.68
2023-02-12T12:16:54.965Z,7.59
2023-02-12T12:19:57.036Z,7.52
2023-02-12T12:23:00.898Z,7.59
2023-02-12T12:26:04.685Z,7.56
2023-02-12T12:28:51.119Z,7.63
2023-02-12T12:31:25.576Z,7.58
2023-02-12T12:34:17.460Z,7.73
2023-02-12T12:36:55.558Z,7.76
2023-02-12T12:39:25.053Z,7.77
2023-02-12T12:42:06.841Z,7.77
2023-02-12T12:44:47.155Z,7.75
2023-02-12T12:47:19.523Z,7.91
2023-02-12T12:50:12.217Z,7.80
2023-02-12T12:52:54.436Z,7.88
2023-02-12T12:55:24.184Z,7.60
2023-02-12T12:58:15.527Z,7.57
2023-02-12T13:00:55.825Z,7.73
2023-02-12T13:03:32.098Z,7.63
2023-02-12T13:06:22.428Z,7.62
2023-02-12T13:09:27.418Z,7.49
2023-02-12T13:12:20.086Z,7.60
2023-02-12T13:14:57.903Z,7.70
2023-02-12T13:17:46.062Z,7.78
2023-02-12T13:20:15.478Z,7.66
2023-02-12T13:23:09.280Z,7.82
2023-02-12T13:26:11.105Z,7.79
2023-02-12T13:28:52.099Z,7.82
2023-02-12T13:31:32.895Z,8.16
2023-02-12T13:34:07.162Z,8.06
2023-02-12T13:36:39.060Z,7.99
2023-02-12T13:39:34.245Z,8.03
2023-02-12T13:42:21.974Z,8.07
2023-02-12T13:45:07.182Z,8.23
2023-02-12T13:47:39.651Z,8.22
2023-02-12T13:50:34.387Z,8.31
2023-02-12T13:53:23.044Z,8.03
2023-02-12T13:56:01.700Z,8.03
2023-02-12T13:58:34.860Z,8.19
2023-02-12T14:01:08.710Z,8.31
2023-02-12T14:03:36.994Z,8.43
2023-02-12T14:06:16.976Z,8.30
2023-02-12T14:09:10.836Z,8.25
2023-02-12T14:11:50.382Z,8.29
2023-02-12T14:14:28.221Z,8.15
2023-02-12T14:16:57.400Z,8.05
2023-02-12T14:19:40.145Z,8.03
2023-02-12T14:22:33.777Z,8.05
2023-02-12T14:25:25.776Z,7.87
2023-02-12T14:27:54.371Z,7.75
2023-02-12T14:30:31.731Z,7.91
2023-02-12T14:33:08.782Z,7.74
2023-02-12T14:35:41.552Z,7.82
2023-02-12T14:38:17.919Z,7.81
2023-02-12T14:40:47.097Z,7.71
2023-02-12T14:43:55.046Z,7.79
2023-02-12T14:46:24.605Z,7.63
2023-02-12T14:49:04.987Z,7.77
2023-02-12T14:51:53.327Z,7.69
2023-02-12T14:54:41.958Z,7.73
2023-02-12T14:57:35.005Z,7.68
2023-02-12T15:00:39.046Z,7.51
2023-02-12T15:03:15.099Z,7.51
2023-02-12T15:06:18.891Z,7.44
2023-02-12T15:09:01.225Z,7.33
2023-02-12T15:11:33.814Z,7.43
2023-02-12T15:14:02.048Z,7.53
2023-02-12T15:16:33.956Z,7.32
2023-02-12T15:19:10.189Z,7.25
2023-02-12T15:21:38.299Z,7.23
2023-02-12T15:24:08.033Z,7.30
2023-02-12T15:26:41.452Z,7.33
2023-02-12T15:29:25.202Z,7.33
2023-02-12T15:32:06.823Z,7.35
2023-02-12T15:34:41.868Z,7.30
2023-02-12T15:37:19.470Z,7.17
2023-02-12T15:39:48.024Z,7.06
2023-02-12T15:42:28.794Z,7.12
2023-02-12T15:45:10.575Z,7.07
2023-02-12T15:47:37.169Z,7.01
2023-02-12T15:50:03.923Z,6.94
2023-02-12T15:52:38.815Z,6.91
2023-02-12T15:55:06.304Z,6.88
2023-02-12T15:57:33.473Z,6.82
2023-02-12T16:00:09.363Z,6.83
2023-02-12T16:02:35.925Z,6.78
2023-02-12T16:05:04.504Z,6.79
2023-02-12T16:07:36.182Z,6.60
2023-02-12T16:10:04.484Z,6.69
2023-02-12T16:12:37.606Z,6.72
2023-02-12T16:15:05.384Z,6.78
2023-02-12T16:17:34.208Z,6.53
2023-02-12T16:20:04.355Z,6.56
2023-02-12T16:22:40.233Z,6.55
2023-02-12T16:25:17.712Z,6.47
2023-02-12T16:28:17.868Z,6.29
2023-02-12T16:30:48.231Z,6.22
2023-02-12T16:33:35.160Z,6.30
2023-02-12T16:36:06.220Z,6.17
2023-02-12T16:38:47.485Z,6.20
2023-02-12T16:41:20.419Z,6.13
2023-02-12T16:43:52.288Z,6.16
2023-02-12T16:46:20.558Z,6.18
2023-02-12T16:48:52.490Z,6.13
2023-02-12T16:51:27.431Z,6.13
2023-02-12T16:53:57.434Z,6.03
2023-02-12T16:56:26.289Z,5.98
2023-02-12T16:58:56.281Z,6.15
2023-02-12T17:01:35.301Z,6.06
2023-02-12T17:04:06.679Z,5.99
2023-02-12T17:06:35.742Z,6.03
2023-02-12T17:09:02.375Z,5.95
2023-02-12T17:11:31.381Z,5.87
2023-02-12T17:13:57.919Z,5.84
2023-02-12T17:16:30.688Z,5.90
2023-02-12T17:18:58.606Z,5.86
2023-02-12T17:21:31.863Z,5.90
2023-02-12T17:23:58.747Z,5.97
2023-02-12T17:26:25.797Z,5.98
2023-02-12T17:28:52.298Z,5.94
2023-02-12T17:31:20.688Z,5.95
2023-02-12T17:33:47.320Z,5.78
2023-02-12T17:36:16.070Z,5.86
2023-02-12T17:38:42.568Z,5.90
2023-02-12T17:41:11.871Z,5.84
2023-02-12T17:43:41.033Z,5.80
2023-02-12T17:46:18.921Z,5.70
2023-02-12T17:48:45.744Z,5.80
2023-02-12T17:51:14.754Z,5.85
2023-02-12T17:53:41.326Z,5.86
2023-02-12T17:56:14.785Z,5.87
2023-02-12T17:58:42.392Z,5.70
2023-02-12T18:01:11.630Z,5.85
2023-02-12T18:03:38.980Z,5.71
2023-02-12T18:06:06.917Z,5.71
2023-02-12T18:08:33.830Z,5.75
2023-02-12T18:11:06.032Z,5.65
2023-02-12T18:13:34.857Z,5.56
2023-02-12T18:16:01.842Z,5.58
2023-02-12T18:18:28.347Z,5.59
2023-02-12T18:20:55.337Z,5.56
2023-02-12T18:23:22.056Z,5.59
2023-02-12T18:25:48.618Z,5.57
2023-02-12T18:28:15.153Z,5.57
2023-02-12T18:30:43.247Z,5.60
2023-02-12T18:33:12.394Z,5.50
2023-02-12T18:35:41.674Z,5.49
2023-02-12T18:38:08.212Z,5.35
2023-02-12T18:40:34.710Z,5.32
2023-02-12T18:43:01.279Z,5.31
2023-02-12T18:45:27.820Z,5.33
2023-02-12T18:47:54.507Z,5.31
2023-02-12T18:50:21.313Z,5.28
2023-02-12T18:52:47.775Z,5.33
2023-02-12T18:55:14.278Z,5.07
2023-02-12T18:57:40.749Z,5.07
2023-02-12T19:00:08.065Z,5.15
2023-02-12T19:02:34.649Z,5.09
2023-02-12T19:05:01.203Z,5.24
2023-02-12T19:07:27.777Z,5.07
2023-02-12T19:09:54.360Z,5.05
2023-02-12T19:12:20.921Z,5.09
2023-02-12T19:14:47.436Z,5.17
2023-02-12T19:17:14.033Z,5.01
2023-02-12T19:19:40.643Z,5.01
2023-02-12T19:22:07.332Z,4.89
2023-02-12T19:24:46.002Z,5.04
2023-02-12T19:27:13.637Z,4.96
2023-02-12T19:29:40.232Z,5.02
2023-02-12T19:32:06.918Z,4.77
2023-02-12T19:34:33.505Z,4.73
2023-02-12T19:37:00.195Z,4.61
2023-02-12T19:39:27.484Z,4.69
2023-02-12T19:41:56.141Z,4.72
2023-02-12T19:44:25.563Z,4.71
2023-02-12T19:46:52.976Z,4.67
2023-02-12T19:49:23.169Z,4.66
2023-02-12T19:51:50.230Z,4.52
2023-02-12T19:54:18.624Z,4.68
2023-02-12T19:56:45.716Z,4.53
2023-02-12T19:59:17.363Z,4.43
2023-02-12T20:01:44.945Z,4.45
2023-02-12T20:04:17.732Z,4.46
2023-02-12T20:06:49.052Z,4.31
2023-02-12T20:09:15.607Z,4.45
2023-02-12T20:11:42.198Z,4.39
2023-02-12T20:14:12.132Z,4.41
2023-02-12T20:16:41.631Z,4.19
2023-02-12T20:19:12.827Z,4.30
2023-02-12T20:21:42.421Z,4.33
2023-02-12T20:24:08.969Z,4.29
2023-02-12T20:26:38.237Z,4.28
2023-02-12T20:29:05.527Z,4.32
2023-02-12T20:31:37.937Z,4.10
2023-02-12T20:34:11.670Z,4.11
2023-02-12T20:36:38.942Z,4.15
2023-02-12T20:39:08.287Z,4.09
2023-02-12T20:41:38.164Z,4.01
2023-02-12T20:44:06.620Z,3.97
2023-02-12T20:46:36.104Z,3.94
2023-02-12T20:49:02.923Z,3.93
2023-02-12T20:51:31.703Z,4.03
2023-02-12T20:54:01.306Z,4.15
2023-02-12T20:56:33.074Z,4.14
2023-02-12T20:59:00.894Z,4.09
2023-02-12T21:01:32.776Z,4.07
2023-02-12T21:04:03.579Z,3.95
2023-02-12T21:06:30.310Z,3.95
2023-02-12T21:08:56.845Z,3.91
2023-02-12T21:11:25.180Z,3.91
2023-02-12T21:14:02.570Z,3.94
2023-02-12T21:16:38.594Z,3.91
2023-02-12T21:19:05.189Z,3.88
2023-02-12T21:21:33.664Z,3.84
2023-02-12T21:24:01.701Z,3.87
2023-02-12T21:26:32.733Z,3.82
2023-02-12T21:29:00.809Z,3.79
2023-02-12T21:31:32.184Z,3.84
2023-02-12T21:34:00.415Z,3.75
2023-02-12T21:36:38.748Z,3.66
2023-02-12T21:39:07.973Z,3.62
2023-02-12T21:41:37.318Z,3.67
2023-02-12T21:44:23.770Z,3.65
2023-02-12T21:46:52.728Z,3.68
2023-02-12T21:49:27.465Z,3.80
2023-02-12T21:52:03.234Z,3.70
2023-02-12T21:54:30.652Z,3.69
2023-02-12T21:56:58.542Z,3.68
2023-02-12T21:59:26.423Z,3.73
2023-02-12T22:01:58.321Z,3.58
2023-02-12T22:04:25.358Z,3.54
2023-02-12T22:06:52.848Z,3.47
2023-02-12T22:09:21.302Z,3.48
2023-02-12T22:11:47.872Z,3.48
2023-02-12T22:14:16.993Z,3.44
2023-02-12T22:16:44.346Z,3.40
2023-02-12T22:19:10.938Z,3.49
2023-02-12T22:21:40.150Z,3.44
2023-02-12T22:24:09.020Z,3.27
2023-02-12T22:26:35.510Z,3.30
2023-02-12T22:29:07.952Z,3.32
2023-02-12T22:31:37.100Z,3.36
2023-02-12T22:34:07.424Z,3.20
2023-02-12T22:36:35.602Z,3.29
2023-02-12T22:39:03.115Z,3.21
2023-02-12T22:41:30.157Z,3.15
2023-02-12T22:44:00.356Z,3.14
2023-02-12T22:46:29.773Z,3.14
2023-02-12T22:48:56.390Z,3.12
2023-02-12T22:51:25.955Z,3.00
2023-02-12T22:53:52.992Z,3.11
2023-02-12T22:56:19.662Z,3.04
2023-02-12T22:58:46.792Z,3.13
2023-02-12T23:01:18.444Z,2.98
2023-02-12T23:03:45.765Z,2.96
2023-02-12T23:06:15.122Z,3.07
2023-02-12T23:08:42.045Z,2.90
2023-02-12T23:11:08.957Z,2.99
2023-02-12T23:13:39.309Z,3.00
2023-02-12T23:16:05.844Z,2.93
2023-02-12T23:18:32.740Z,2.91
2023-02-12T23:20:59.740Z,2.93
2023-02-12T23:23:27.075Z,2.90
2023-02-12T23:25:54.675Z,2.92
2023-02-12T23:28:21.980Z,2.87
2023-02-12T23:30:49.876Z,2.87
2023-02-12T23:33:16.957Z,2.91
2023-02-12T23:35:46.821Z,2.78
2023-02-12T23:38:13.345Z,2.82
2023-02-12T23:40:40.641Z,2.78
2023-02-12T23:43:07.447Z,2.85
2023-02-12T23:45:36.192Z,2.90
2023-02-12T23:48:02.642Z,2.93
2023-02-12T23:50:29.257Z,2.91
2023-02-12T23:52:55.711Z,2.83
2023-02-12T23:55:22.245Z,2.77
2023-02-12T23:57:49.702Z,2.81
